This is the latest recevied weather packets stored in our database for station/object VA2DG-13. If no packets are shown the sender has not sent any weather packets the latest 10 day(s).
| Time | Temp. | Humidity | Pressure | Rain* | Wind** | Luminosity | Snow |
|---|---|---|---|---|---|---|---|
| 1777750212 | 6.11° C | 77% | 1010 hPa | 1.27 mm | - | - | - |
| 1777746012 | 8.89° C | 61% | 1009.8 hPa | 0 mm | - | - | - |
| 1777745411 | 9.44° C | 62% | 1009.6 hPa | 0 mm | - | - | - |
| 1777744811 | 9.44° C | 61% | 1009.4 hPa | 0 mm | - | - | - |
| 1777743611 | 8.89° C | 61% | 1009.4 hPa | 0 mm | - | - | - |
| 1777742411 | 9.44° C | 61% | 1009.5 hPa | 0 mm | - | - | - |
| 1777741811 | 9.44° C | 63% | 1009.7 hPa | 0 mm | - | - | - |
| 1777741511 | 8.89° C | 64% | 1009.7 hPa | 0 mm | - | - | - |
| 1777737911 | 7.22° C | 72% | 1010.2 hPa | 0 mm | - | - | - |
| 1777737011 | 7.22° C | 73% | 1010.3 hPa | 0 mm | - | - | - |
| 1777734611 | 6.67° C | 82% | 1010.6 hPa | 0 mm | - | - | - |
| 1777734011 | 6.11° C | 83% | 1010.8 hPa | 0 mm | - | - | - |
| 1777733111 | 5.56° C | 83% | 1010.9 hPa | 0 mm | - | - | - |
| 1777732811 | 5° C | 83% | 1010.8 hPa | 0 mm | - | - | - |
| 1777732511 | 5° C | 83% | 1010.9 hPa | 0 mm | - | - | - |
| 1777729212 | 5° C | 82% | 1011.1 hPa | 0.25 mm | - | - | - |
| 1777728911 | 4.44° C | 82% | 1011.2 hPa | 0.25 mm | - | - | - |
| 1777728311 | 4.44° C | 82% | 1011.2 hPa | 0.25 mm | - | - | - |
| 1777727411 | 4.44° C | 82% | 1011.4 hPa | 0.25 mm | - | - | - |
| 1777726510 | 4.44° C | 82% | 1011.1 hPa | 0 mm | - | - | - |
| 1777725910 | 4.44° C | 82% | 1011.2 hPa | 0 mm | - | - | - |
| 1777725011 | 5° C | 82% | 1011.3 hPa | 0 mm | - | - | - |
| 1777723210 | 5° C | 82% | 1011 hPa | 0 mm | - | - | - |
| 1777722311 | 5.56° C | 82% | 1011 hPa | 0 mm | - | - | - |
| 1777721111 | 5.56° C | 82% | 1011.1 hPa | 0 mm | - | - | - |
* Rain latest hour (hover to see other rain measurements)
** Current wind speed in m/s (hover to see current wind gust speed)